Flight Track Log - Related Links

Times and Time Zones

All times are in EDT time to prevent confusion due to time zone crossing. See the CTL16 flight status page for this flight to view local times or setup timezone preferences in your user account.

Time Position Orientation Groundspeed Altitude Reporting Facility
EDT Latitude Longitude Course Direction KTS MPH feet Rate Location/Type
Mon 08:34:36 PM 39.3833 -84.4833 50° Northeast 133 153 1,500  Level Cincinnati TRACON
Mon 08:36:26 PM 39.4183 -84.4294 50° Northeast 104 120 3,400 906 Climbing Indianapolis Center
Mon 08:37:15 PM 39.4347 -84.4053 49° Northeast 112 129 3,900 806 Climbing Indianapolis Center
Mon 08:37:33 PM 39.4425 -84.3894 58° Northeast 120 138 4,300 726 Climbing Indianapolis Center
Mon 08:39:19 PM 39.4775 -84.3378 49° Northeast 118 136 5,400 587 Climbing Indianapolis Center
Mon 08:41:18 PM 39.5300 -84.2658 47° Northeast 131 151 6,500 390 Climbing Indianapolis Center
Mon 08:43:25 PM 39.5892 -84.1894 45° Northeast 141 162 7,000 160 Climbing Indianapolis Center
Mon 08:44:26 PM 39.6197 -84.1497 45° Northeast 149 171 7,000  Level Indianapolis Center
Mon 08:45:27 PM 39.6514 -84.1086 45° Northeast 156 180 7,000  Level Indianapolis Center
Mon 08:46:28 PM 39.6800 -84.0661 49° Northeast 153 176 7,000  Level Indianapolis Center
Mon 08:47:29 PM 39.7081 -84.0264 47° Northeast 153 176 7,000 49 Level Indianapolis Center
Mon 08:48:30 PM 39.7383 -83.9869 45° Northeast 155 178 7,100  Climbing Indianapolis Center
Mon 08:49:31 PM 39.7689 -83.9447 47° Northeast 158 182 7,000 -48 Descending Indianapolis Center
Mon 08:50:36 PM 39.8017 -83.9056 43° Northeast 158 182 7,000  Level Indianapolis Center
Mon 08:51:26 PM 39.8333 -83.8686 42° Northeast 157 181 7,000  Level Indianapolis Center
Mon 08:53:00 PM 39.8631 -83.7978 43° Northeast  Level FlightAware Approximate
Mon 08:53:22 PM 39.8936 -83.7922 43° Northeast 156 180 7,000  Level Indianapolis Center
Mon 08:53:40 PM 39.9031 -83.7803 44° Northeast 157 181 7,000  Level Indianapolis Center
Mon 08:54:23 PM 39.9239 -83.7525 46° Northeast 154 177 7,000  Level Indianapolis Center
Mon 08:54:42 PM 39.9333 -83.7408 43° Northeast 154 177 7,000 100 Level Indianapolis Center
Mon 08:55:23 PM 39.9539 -83.7153 44° Northeast 154 177 7,100  Climbing Indianapolis Center
Mon 08:55:43 PM 39.9644 -83.7017 45° Northeast 153 176 7,000  Descending Indianapolis Center
Mon 08:56:45 PM 39.9961 -83.6636 43° Northeast 153 176 7,100  Climbing Indianapolis Center
Mon 08:57:25 PM 40.0139 -83.6386 47° Northeast 150 173 7,000 -98 Descending Indianapolis Center
Mon 08:57:46 PM 40.0264 -83.6242 42° Northeast 152 175 7,000  Level Indianapolis Center
Mon 08:58:26 PM 40.0464 -83.5961 47° Northeast 151 174 7,000  Level Indianapolis Center
Mon 08:58:48 PM 40.0564 -83.5839 43° Northeast 152 175 7,000  Level Indianapolis Center
Mon 08:59:21 PM 40.0717 -83.5639 45° Northeast 153 176 7,000  Level Indianapolis Center
Mon 08:59:49 PM 40.0878 -83.5453 41° Northeast 152 175 7,000  Level Indianapolis Center
Mon 09:00:39 PM 40.1131 -83.5144 43° Northeast 153 176 7,000  Level Indianapolis Center
Mon 09:01:22 PM 40.1361 -83.4847 45° Northeast 155 178 7,000  Level Indianapolis Center
Mon 09:01:52 PM 40.1511 -83.4667 43° Northeast 155 178 7,000  Level Indianapolis Center
Mon 09:02:53 PM 40.1822 -83.4261 45° Northeast 156 180 7,000  Level Indianapolis Center
Mon 09:03:41 PM 40.2078 -83.3922 45° Northeast 154 177 7,000  Level Indianapolis Center
Mon 09:04:42 PM 40.2378 -83.3522 45° Northeast 155 178 7,000  Level Indianapolis Center
Mon 09:05:57 PM 40.2758 -83.3056 43° Northeast 155 178 7,000 44 Level Indianapolis Center
Mon 09:06:59 PM 40.3069 -83.2642 45° Northeast 157 181 7,100 56 Climbing Indianapolis Center
Mon 09:07:44 PM 40.3319 -83.2325 44° Northeast 157 181 7,100  Level Indianapolis Center
Mon 09:08:00 PM 40.3386 -83.2233 46° Northeast 158 182 7,100  Level Indianapolis Center
Mon 09:09:01 PM 40.3703 -83.1817 45° Northeast 159 183 7,100  Level Indianapolis Center
Mon 09:11:04 PM 40.4400 -83.0936 44° Northeast 159 183 7,100  Level Indianapolis Center
Mon 09:12:06 PM 40.4714 -83.0511 46° Northeast 160 184 7,100  Level Indianapolis Center
Mon 09:14:00 PM 40.5332 -82.9785 42° Northeast  Level FlightAware Approximate
Mon 09:15:10 PM 40.5686 -82.9231 42° Northeast 163 188 7,100  Level Indianapolis Center
Mon 09:16:11 PM 40.6006 -82.8794 46° Northeast 164 189 7,100  Level Indianapolis Center
Mon 09:17:13 PM 40.6331 -82.8364 45° Northeast 164 189 7,100  Level Indianapolis Center
Mon 09:18:14 PM 40.6642 -82.7911 48° Northeast 165 190 7,100  Level Indianapolis Center
Mon 09:19:15 PM 40.6967 -82.7472 46° Northeast 165 190 7,100  Level Indianapolis Center
Mon 09:20:17 PM 40.7289 -82.7028 46° Northeast 166 191 7,100  Level Indianapolis Center
Mon 09:22:02 PM 40.7931 -82.6292 41° Northeast 165 190 7,100  Level Cleveland Center
Mon 09:23:03 PM 40.8269 -82.5944 38° Northeast 167 192 7,100 47 Level Cleveland Center
Mon 09:24:10 PM 40.8672 -82.5544 37° Northeast 165 190 7,200 50 Climbing Cleveland Center
Mon 09:25:04 PM 40.8992 -82.5169 42° Northeast 163 188 7,200  Level Cleveland Center
Mon 09:26:05 PM 40.9333 -82.4767 42° Northeast 163 188 7,200  Level Cleveland Center
Mon 09:26:59 PM 40.9631 -82.4364 46° Northeast 164 189 7,200 -52 Level Cleveland Center
Mon 09:28:00 PM 40.9908 -82.3931 50° Northeast 163 188 7,100 -49 Descending Cleveland Center
Mon 09:29:01 PM 41.0247 -82.3528 42° Northeast 162 186 7,100  Level Cleveland Center
Mon 09:30:01 PM 41.0589 -82.3125 42° Northeast 164 189 7,100 50 Level Cleveland Center
Mon 09:31:02 PM 41.0908 -82.2664 47° Northeast 163 188 7,200  Climbing Cleveland Center
Mon 09:32:02 PM 41.1228 -82.2178 49° Northeast 168 193 7,100  Descending Cleveland Center
Mon 09:33:03 PM 41.1567 -82.1744 44° Northeast 170 196 7,200  Climbing Cleveland Center
Mon 09:34:04 PM 41.1928 -82.1311 42° Northeast 170 196 7,100  Descending Cleveland Center
Mon 09:36:05 PM 41.2564 -82.0414 47° Northeast 168 193 7,200  Climbing Cleveland Center
Mon 09:37:05 PM 41.2906 -81.9953 45° Northeast 168 193 7,100 -341 Descending Cleveland Center
Mon 09:39:01 PM 41.3581 -81.9108 43° Northeast 186 214 6,200 -375 Descending Cleveland Center
Mon 09:40:01 PM 41.3942 -81.8647 44° Northeast 187 215 6,000 -843 Descending Cleveland Center
Mon 09:41:02 PM 41.4281 -81.8183 46° Northeast 164 189 4,500 -1,636 Descending Cleveland Center
Mon 09:42:02 PM 41.4639 -81.7803 39° Northeast 160 184 2,700 -1,488 Descending Cleveland Center
Mon 09:43:03 PM 41.4914 -81.7419 46° Northeast 139 160 1,500 -1,180 Descending Cleveland Center
Mon 09:45:00 PM 41.5175 -81.6833 48° Northeast  Level Estimated
Mon 09:52:00 PM 41.5175 -81.6833 48° Northeast  Level Estimated

Login

Don't have an account? Register now (free) for customized features, flight alerts, and more!